Time;durP1;ratioP1;P1;durP2;ratioP2;P2;SDS_P1;SDS_P2;PMS_P1;PMS_P2;Temp;Humidity;BMP_temperature;BMP_pressure;BME280_temperature;BME280_humidity;BME280_pressure;Samples;Min_cycle;Max_cycle;Signal;HPM_P1;HPM_P2
2021/09/01 00:00:34;;;;;;;;;;;12.50;1.00;;;;;;5089676;28;20268;-66
2021/09/01 00:03:00;;;;;;;;;;;12.50;1.00;;;;;;5088355;28;19919;-65
2021/09/01 00:05:25;;;;;;;;;;;12.50;1.00;;;;;;5089414;28;19908;-66
2021/09/01 00:07:51;;;;;;;;;;;12.50;1.00;;;;;;5088657;28;19935;-65
2021/09/01 00:10:16;;;;;;;;;;;12.50;1.00;;;;;;5089401;28;20025;-66
2021/09/01 00:12:43;;;;;;;;;;;12.50;1.00;;;;;;5088436;28;19954;-65
2021/09/01 00:15:09;;;;;;;;;;;12.40;1.00;;;;;;5090034;28;19943;-66
2021/09/01 00:17:36;;;;;;;;;;;12.40;1.00;;;;;;5093266;28;20052;-65
2021/09/01 00:20:03;;;;;;;;;;;12.40;1.00;;;;;;5110317;28;19912;-67
2021/09/01 00:22:28;;;;;;;;;;;12.40;1.00;;;;;;5108384;28;19915;-67
2021/09/01 00:24:54;;;;;;;;;;;12.30;1.00;;;;;;5109007;28;19916;-66
2021/09/01 00:27:19;;;;;;;;;;;12.30;1.00;;;;;;5109212;28;20240;-65
2021/09/01 00:29:45;;;;;;;;;;;12.30;1.00;;;;;;5109399;28;20045;-66
2021/09/01 00:32:10;;;;;;;;;;;12.30;1.00;;;;;;5108119;28;20356;-66
2021/09/01 00:34:36;;;;;;;;;;;12.30;1.00;;;;;;5109473;28;19953;-66
2021/09/01 00:37:01;;;;;;;;;;;12.20;1.00;;;;;;5109355;28;19937;-66
2021/09/01 00:39:27;;;;;;;;;;;12.20;1.00;;;;;;5112765;28;19919;-66
2021/09/01 00:41:52;;;;;;;;;;;12.20;1.00;;;;;;5112757;28;19998;-66
2021/09/01 00:44:22;;;;;;;;;;;12.20;1.00;;;;;;5113382;28;19908;-66
2021/09/01 00:46:48;;;;;;;;;;;12.20;1.00;;;;;;5113083;28;19915;-67
2021/09/01 00:49:14;;;;;;;;;;;12.20;1.00;;;;;;5113206;28;20285;-66
2021/09/01 00:51:41;;;;;;;;;;;12.20;1.00;;;;;;5113151;28;20410;-66
2021/09/01 00:54:09;;;;;;;;;;;12.10;1.00;;;;;;5111247;28;19943;-65
2021/09/01 00:56:35;;;;;;;;;;;12.10;1.00;;;;;;5113244;28;19915;-66
2021/09/01 00:59:00;;;;;;;;;;;12.10;1.00;;;;;;5112613;28;20279;-66
2021/09/01 01:01:26;;;;;;;;;;;12.10;1.00;;;;;;5111324;28;19915;-66
2021/09/01 01:03:53;;;;;;;;;;;12.10;1.00;;;;;;5111441;28;19969;-64
2021/09/01 01:06:19;;;;;;;;;;;12.10;1.00;;;;;;5112851;28;19930;-64
2021/09/01 01:08:46;;;;;;;;;;;12.10;1.00;;;;;;5110989;28;20003;-66
2021/09/01 01:11:12;;;;;;;;;;;12.10;1.00;;;;;;5112338;28;19984;-65
2021/09/01 01:13:37;;;;;;;;;;;12.00;1.00;;;;;;5111746;28;19907;-67
2021/09/01 01:16:03;;;;;;;;;;;12.00;1.00;;;;;;5112600;28;19994;-66
2021/09/01 01:18:29;;;;;;;;;;;11.90;1.00;;;;;;5123529;27;19912;-65
2021/09/01 01:20:55;;;;;;;;;;;11.90;1.00;;;;;;5132667;27;19918;-65
2021/09/01 01:23:22;;;;;;;;;;;11.90;1.00;;;;;;5129680;27;20257;-65
2021/09/01 01:25:47;;;;;;;;;;;11.90;1.00;;;;;;5112048;28;19911;-66
2021/09/01 01:28:13;;;;;;;;;;;11.80;1.00;;;;;;5112032;28;20356;-66
2021/09/01 01:30:39;;;;;;;;;;;11.70;1.00;;;;;;5112046;28;19964;-66
2021/09/01 01:33:04;;;;;;;;;;;11.80;1.00;;;;;;5110889;28;19911;-67
2021/09/01 01:35:31;;;;;;;;;;;11.70;1.00;;;;;;5111520;28;20354;-66
2021/09/01 01:37:58;;;;;;;;;;;11.70;1.00;;;;;;5111173;28;19916;-66
2021/09/01 01:40:24;;;;;;;;;;;11.70;1.00;;;;;;5111414;28;19919;-66
2021/09/01 01:42:53;;;;;;;;;;;11.70;1.00;;;;;;5111314;28;19912;-66
2021/09/01 01:45:19;;;;;;;;;;;11.70;1.00;;;;;;5111620;28;20533;-67
2021/09/01 01:47:44;;;;;;;;;;;11.70;1.00;;;;;;5111538;28;19916;-66
2021/09/01 01:50:10;;;;;;;;;;;11.70;1.00;;;;;;5111029;28;19937;-65
2021/09/01 01:52:35;;;;;;;;;;;11.60;1.00;;;;;;5110351;28;20356;-67
2021/09/01 01:55:02;;;;;;;;;;;11.60;1.00;;;;;;5111439;28;19977;-66
2021/09/01 01:57:27;;;;;;;;;;;11.60;1.00;;;;;;5111300;28;20007;-66
2021/09/01 01:59:53;;;;;;;;;;;11.50;1.00;;;;;;5111576;28;20065;-65
2021/09/01 02:02:18;;;;;;;;;;;11.50;1.00;;;;;;5110508;28;20121;-67
2021/09/01 02:04:44;;;;;;;;;;;11.50;1.00;;;;;;5111244;28;19908;-66
2021/09/01 02:07:09;;;;;;;;;;;11.50;1.00;;;;;;5110810;28;20022;-66
2021/09/01 02:09:35;;;;;;;;;;;11.40;1.00;;;;;;5110645;28;20061;-66
2021/09/01 02:12:00;;;;;;;;;;;11.50;1.00;;;;;;5110580;28;20010;-66
2021/09/01 02:14:26;;;;;;;;;;;11.40;1.00;;;;;;5111435;28;19911;-67
2021/09/01 02:16:51;;;;;;;;;;;11.40;1.00;;;;;;5110808;28;20333;-66
2021/09/01 02:19:16;;;;;;;;;;;11.40;1.00;;;;;;5130033;27;20044;-67
2021/09/01 02:21:42;;;;;;;;;;;11.40;1.00;;;;;;5131154;27;19912;-67
2021/09/01 02:24:08;;;;;;;;;;;11.30;1.00;;;;;;5121948;27;19911;-67
2021/09/01 02:26:33;;;;;;;;;;;11.30;1.00;;;;;;5111112;28;19927;-67
2021/09/01 02:28:59;;;;;;;;;;;11.30;1.00;;;;;;5110827;28;19981;-66
2021/09/01 02:31:25;;;;;;;;;;;11.30;1.00;;;;;;5111119;28;19915;-65
2021/09/01 02:33:51;;;;;;;;;;;11.30;1.00;;;;;;5109091;28;19908;-66
2021/09/01 02:36:16;;;;;;;;;;;11.30;1.00;;;;;;5092697;28;20273;-67
2021/09/01 02:38:44;;;;;;;;;;;11.30;1.00;;;;;;5109521;28;20025;-67
2021/09/01 02:41:11;;;;;;;;;;;11.20;1.00;;;;;;5111237;28;19918;-66
2021/09/01 02:43:36;;;;;;;;;;;11.30;1.00;;;;;;5110123;28;19908;-66
2021/09/01 02:46:02;;;;;;;;;;;11.20;1.00;;;;;;5110832;28;19908;-66
2021/09/01 02:48:27;;;;;;;;;;;11.20;1.00;;;;;;5109841;28;19914;-67
2021/09/01 02:50:53;;;;;;;;;;;11.20;1.00;;;;;;5098663;28;19972;-66
2021/09/01 02:53:18;;;;;;;;;;;11.30;1.00;;;;;;5088961;28;19912;-66
2021/09/01 02:55:44;;;;;;;;;;;11.20;1.00;;;;;;5090019;28;19908;-66
2021/09/01 02:58:10;;;;;;;;;;;11.20;1.00;;;;;;5089684;28;19912;-64
2021/09/01 03:00:35;;;;;;;;;;;11.20;1.00;;;;;;5089712;28;19927;-65
2021/09/01 03:03:01;;;;;;;;;;;11.10;1.00;;;;;;5109029;28;19916;-65
2021/09/01 03:05:26;;;;;;;;;;;11.20;1.00;;;;;;5110810;28;19908;-66
2021/09/01 03:07:52;;;;;;;;;;;11.20;1.00;;;;;;5109078;28;19951;-67
2021/09/01 03:10:17;;;;;;;;;;;11.20;1.00;;;;;;5109679;28;19912;-66
2021/09/01 03:12:43;;;;;;;;;;;11.10;1.00;;;;;;5109043;28;20411;-66
2021/09/01 03:15:08;;;;;;;;;;;11.00;1.00;;;;;;5110297;28;19908;-66
2021/09/01 03:17:34;;;;;;;;;;;10.90;1.00;;;;;;5113288;27;19912;-66
2021/09/01 03:19:59;;;;;;;;;;;10.90;1.00;;;;;;5130125;27;20736;-66
2021/09/01 03:22:25;;;;;;;;;;;10.80;1.00;;;;;;5128907;27;19956;-66
2021/09/01 03:24:50;;;;;;;;;;;10.80;1.00;;;;;;5116286;27;19915;-64
2021/09/01 03:27:16;;;;;;;;;;;10.80;1.00;;;;;;5109743;28;19916;-66
2021/09/01 03:29:41;;;;;;;;;;;10.80;1.00;;;;;;5109887;28;19908;-67
2021/09/01 03:32:07;;;;;;;;;;;10.70;1.00;;;;;;5107888;28;19996;-66
2021/09/01 03:34:32;;;;;;;;;;;10.80;1.00;;;;;;5110070;28;20288;-66
2021/09/01 03:36:58;;;;;;;;;;;10.80;1.00;;;;;;5108698;28;19957;-66
2021/09/01 03:39:23;;;;;;;;;;;10.80;1.00;;;;;;5109315;28;20362;-66
2021/09/01 03:41:49;;;;;;;;;;;10.70;1.00;;;;;;5108818;28;19998;-67
2021/09/01 03:44:14;;;;;;;;;;;10.70;1.00;;;;;;5109267;28;19911;-66
2021/09/01 03:46:40;;;;;;;;;;;10.70;1.00;;;;;;5109824;28;19962;-67
2021/09/01 03:49:05;;;;;;;;;;;10.70;1.00;;;;;;5109060;28;19912;-66
2021/09/01 03:51:31;;;;;;;;;;;10.60;1.00;;;;;;5109519;28;19908;-66
2021/09/01 03:53:56;;;;;;;;;;;10.60;1.00;;;;;;5107201;28;20448;-67
2021/09/01 03:56:22;;;;;;;;;;;10.60;1.00;;;;;;5109778;28;19955;-66
2021/09/01 03:58:47;;;;;;;;;;;10.60;1.00;;;;;;5109214;28;19977;-66
2021/09/01 04:01:13;;;;;;;;;;;10.60;1.00;;;;;;5109426;28;19916;-66
2021/09/01 04:03:38;;;;;;;;;;;10.50;1.00;;;;;;5108157;28;19912;-66
2021/09/01 04:06:05;;;;;;;;;;;10.60;1.00;;;;;;5109846;28;19946;-66
2021/09/01 04:08:30;;;;;;;;;;;10.60;1.00;;;;;;5108178;28;19991;-66
2021/09/01 04:10:56;;;;;;;;;;;10.60;1.00;;;;;;5109084;28;20147;-66
2021/09/01 04:13:21;;;;;;;;;;;10.60;1.00;;;;;;5108208;28;19998;-66
2021/09/01 04:15:47;;;;;;;;;;;10.50;1.00;;;;;;5109372;28;20045;-66
2021/09/01 04:18:12;;;;;;;;;;;10.50;1.00;;;;;;5108479;28;20073;-66
2021/09/01 04:20:38;;;;;;;;;;;10.50;1.00;;;;;;5109367;28;20010;-66
2021/09/01 04:23:03;;;;;;;;;;;10.50;1.00;;;;;;5107907;28;20606;-66
2021/09/01 04:25:29;;;;;;;;;;;10.50;1.00;;;;;;5108956;28;19914;-66
2021/09/01 04:27:55;;;;;;;;;;;10.50;1.00;;;;;;5091191;28;19916;-65
2021/09/01 04:30:21;;;;;;;;;;;10.50;1.00;;;;;;5107754;28;19907;-65
2021/09/01 04:32:46;;;;;;;;;;;10.50;1.00;;;;;;5107343;28;20806;-66
2021/09/01 04:35:12;;;;;;;;;;;10.40;1.00;;;;;;5107680;28;20460;-66
2021/09/01 04:37:37;;;;;;;;;;;10.40;1.00;;;;;;5108189;28;19958;-66
2021/09/01 04:40:03;;;;;;;;;;;10.40;1.00;;;;;;5108671;28;20288;-66
2021/09/01 04:42:29;;;;;;;;;;;10.40;1.00;;;;;;5108327;28;19933;-65
2021/09/01 04:44:54;;;;;;;;;;;10.40;1.00;;;;;;5108933;28;19911;-66
2021/09/01 04:47:20;;;;;;;;;;;10.50;1.00;;;;;;5108514;28;20026;-66
2021/09/01 04:49:45;;;;;;;;;;;10.50;1.00;;;;;;5109171;28;19995;-66
2021/09/01 04:52:10;;;;;;;;;;;10.60;1.00;;;;;;5107430;28;20489;-66
2021/09/01 04:54:36;;;;;;;;;;;10.60;1.00;;;;;;5108530;28;20011;-66
2021/09/01 04:57:02;;;;;;;;;;;10.70;1.00;;;;;;5107914;28;19939;-64
2021/09/01 04:59:27;;;;;;;;;;;10.90;1.00;;;;;;5106156;28;20601;-65
2021/09/01 05:01:52;;;;;;;;;;;10.90;1.00;;;;;;5104883;28;19953;-65
2021/09/01 05:04:18;;;;;;;;;;;11.00;1.00;;;;;;5106434;28;19911;-66
2021/09/01 05:06:43;;;;;;;;;;;11.20;1.00;;;;;;5106191;28;20014;-66
2021/09/01 05:09:09;;;;;;;;;;;11.30;1.00;;;;;;5105386;28;19912;-66
2021/09/01 05:11:34;;;;;;;;;;;11.40;1.00;;;;;;5106278;28;19911;-67
2021/09/01 05:14:00;;;;;;;;;;;11.60;1.00;;;;;;5105426;28;19955;-67
2021/09/01 05:16:25;;;;;;;;;;;11.80;1.00;;;;;;5106774;28;19947;-65
2021/09/01 05:18:51;;;;;;;;;;;11.90;1.00;;;;;;5121403;28;20389;-67
2021/09/01 05:21:17;;;;;;;;;;;12.10;1.00;;;;;;5126911;28;19911;-67
2021/09/01 05:23:44;;;;;;;;;;;12.20;1.00;;;;;;5120981;27;20005;-67
2021/09/01 05:26:09;;;;;;;;;;;12.30;1.00;;;;;;5109976;28;20010;-67
2021/09/01 05:28:36;;;;;;;;;;;12.40;1.00;;;;;;5109699;28;20332;-67
2021/09/01 05:31:03;;;;;;;;;;;12.50;1.00;;;;;;5110060;28;19923;-66
2021/09/01 05:33:33;;;;;;;;;;;12.60;1.00;;;;;;5108296;28;20339;-65
2021/09/01 05:35:59;;;;;;;;;;;12.80;1.00;;;;;;5103680;28;19923;-67
2021/09/01 05:38:24;;;;;;;;;;;13.00;1.00;;;;;;5101603;28;20622;-66
2021/09/01 05:40:51;;;;;;;;;;;13.80;1.00;;;;;;5109205;28;19981;-67
2021/09/01 05:43:17;;;;;;;;;;;14.90;1.00;;;;;;5107931;28;19914;-66
2021/09/01 05:45:46;;;;;;;;;;;16.10;1.00;;;;;;5109845;28;19918;-67
2021/09/01 05:48:12;;;;;;;;;;;17.30;1.00;;;;;;5109947;28;19912;-65
2021/09/01 05:50:41;;;;;;;;;;;18.40;99.90;;;;;;5111460;28;19908;-67
2021/09/01 05:53:07;;;;;;;;;;;19.20;1.00;;;;;;5109250;28;19908;-66
2021/09/01 05:55:35;;;;;;;;;;;20.20;1.00;;;;;;5111529;28;20006;-66
2021/09/01 05:58:01;;;;;;;;;;;21.00;1.00;;;;;;5113003;28;19975;-67
2021/09/01 06:00:38;;;;;;;;;;;21.80;1.00;;;;;;5112394;28;19973;-68
2021/09/01 06:03:13;;;;;;;;;;;22.50;1.00;;;;;;5109792;28;20336;-65
2021/09/01 06:05:38;;;;;;;;;;;23.00;99.90;;;;;;5110908;28;20352;-67
2021/09/01 06:08:06;;;;;;;;;;;23.70;99.90;;;;;;5109239;28;19957;-66
2021/09/01 06:10:32;;;;;;;;;;;24.10;99.90;;;;;;5108735;28;20475;-66
2021/09/01 06:13:01;;;;;;;;;;;24.80;99.90;;;;;;5108072;28;19941;-65
2021/09/01 06:15:27;;;;;;;;;;;25.30;99.90;;;;;;5110113;28;20396;-66
2021/09/01 06:17:53;;;;;;;;;;;25.70;99.90;;;;;;5114736;27;19916;-67
2021/09/01 06:20:18;;;;;;;;;;;26.10;99.90;;;;;;5129366;27;19957;-66
2021/09/01 06:22:44;;;;;;;;;;;26.50;99.90;;;;;;5127959;27;19960;-67
2021/09/01 06:25:09;;;;;;;;;;;27.00;99.90;;;;;;5112108;27;19908;-67
2021/09/01 06:27:35;;;;;;;;;;;27.70;99.90;;;;;;5108309;28;19980;-67
2021/09/01 06:30:00;;;;;;;;;;;28.20;99.90;;;;;;5111200;28;20006;-67
2021/09/01 06:32:26;;;;;;;;;;;28.90;99.90;;;;;;5110216;28;19954;-67
2021/09/01 06:34:51;;;;;;;;;;;29.10;99.90;;;;;;5111627;28;19907;-69
2021/09/01 06:37:17;;;;;;;;;;;29.80;99.90;;;;;;5110256;28;19918;-67
2021/09/01 06:39:43;;;;;;;;;;;30.50;99.90;;;;;;5111743;28;20298;-67
2021/09/01 06:42:08;;;;;;;;;;;30.80;99.90;;;;;;5110948;28;20360;-67
2021/09/01 06:44:34;;;;;;;;;;;31.00;99.90;;;;;;5112047;28;19915;-67
2021/09/01 06:46:59;;;;;;;;;;;31.20;99.90;;;;;;5111801;28;19933;-68
2021/09/01 06:49:25;;;;;;;;;;;31.10;99.90;;;;;;5114769;28;19908;-67
2021/09/01 06:51:50;;;;;;;;;;;31.20;99.90;;;;;;5094393;28;19916;-68
2021/09/01 06:54:16;;;;;;;;;;;31.50;99.90;;;;;;5089855;28;20089;-67
2021/09/01 06:56:41;;;;;;;;;;;31.30;99.90;;;;;;5090925;28;19908;-67
2021/09/01 06:59:07;;;;;;;;;;;31.20;99.90;;;;;;5090087;28;19912;-67
2021/09/01 07:01:32;;;;;;;;;;;31.50;99.90;;;;;;5090290;28;20536;-67
2021/09/01 07:03:58;;;;;;;;;;;31.10;99.90;;;;;;5088904;28;19908;-67
2021/09/01 07:06:23;;;;;;;;;;;31.50;99.90;;;;;;5090781;28;20428;-66
2021/09/01 07:08:49;;;;;;;;;;;32.00;99.90;;;;;;5070380;28;19912;-65
2021/09/01 07:11:15;;;;;;;;;;;32.30;99.90;;;;;;5090012;28;19908;-66
2021/09/01 07:13:41;;;;;;;;;;;32.50;99.90;;;;;;5090316;28;19911;-66
2021/09/01 07:16:06;;;;;;;;;;;32.90;99.90;;;;;;5110657;28;20003;-66
2021/09/01 07:18:32;;;;;;;;;;;33.50;99.90;;;;;;5109845;28;20400;-66
2021/09/01 07:20:57;;;;;;;;;;;34.10;99.90;;;;;;5110655;28;20393;-66
2021/09/01 07:23:23;;;;;;;;;;;34.30;99.90;;;;;;5108722;28;20505;-66
2021/09/01 07:25:48;;;;;;;;;;;35.00;99.90;;;;;;5109921;28;19992;-65
2021/09/01 07:28:14;;;;;;;;;;;35.80;99.90;;;;;;5109870;28;20037;-66
2021/09/01 07:30:40;;;;;;;;;;;35.80;99.90;;;;;;5110615;28;19907;-66
2021/09/01 07:33:05;;;;;;;;;;;36.30;99.90;;;;;;5109226;28;20584;-66
2021/09/01 07:35:31;;;;;;;;;;;36.70;99.90;;;;;;5103373;28;19911;-67
2021/09/01 07:37:56;;;;;;;;;;;37.10;99.90;;;;;;5100509;28;19916;-69
2021/09/01 07:40:23;;;;;;;;;;;36.80;99.90;;;;;;5109507;28;20269;-67
2021/09/01 07:42:48;;;;;;;;;;;37.30;99.90;;;;;;5109604;28;19908;-67
2021/09/01 07:45:15;;;;;;;;;;;37.90;99.90;;;;;;5110352;28;19908;-66
2021/09/01 07:47:47;;;;;;;;;;;39.10;99.90;;;;;;5109193;28;19908;-66
2021/09/01 07:50:13;;;;;;;;;;;39.90;99.90;;;;;;5110167;28;19911;-66
2021/09/01 07:52:38;;;;;;;;;;;40.50;99.90;;;;;;5108414;28;19934;-65
2021/09/01 07:55:04;;;;;;;;;;;40.50;99.90;;;;;;5109872;28;19912;-66
2021/09/01 07:57:29;;;;;;;;;;;40.60;99.90;;;;;;5110089;28;19911;-66
2021/09/01 07:59:56;;;;;;;;;;;41.70;99.90;;;;;;5109753;28;20014;-67
2021/09/01 08:02:22;;;;;;;;;;;43.10;99.90;;;;;;5108914;28;19994;-66
2021/09/01 08:04:48;;;;;;;;;;;43.20;99.90;;;;;;5106295;28;20076;-65
2021/09/01 08:07:13;;;;;;;;;;;43.90;99.90;;;;;;5105914;28;20394;-66
2021/09/01 08:09:39;;;;;;;;;;;43.80;99.90;;;;;;5108906;28;20002;-65
2021/09/01 08:12:04;;;;;;;;;;;43.80;96.50;;;;;;5101549;28;20267;-67
2021/09/01 08:14:30;;;;;;;;;;;43.40;92.20;;;;;;5109488;28;20273;-67
2021/09/01 08:16:55;;;;;;;;;;;43.40;85.70;;;;;;5109485;28;19922;-67
2021/09/01 08:19:21;;;;;;;;;;;44.20;78.70;;;;;;5107135;28;19927;-67
2021/09/01 08:21:46;;;;;;;;;;;44.10;70.80;;;;;;5108980;28;19996;-69
2021/09/01 08:24:12;;;;;;;;;;;44.10;63.20;;;;;;5103404;28;19923;-67
2021/09/01 08:26:37;;;;;;;;;;;44.40;57.90;;;;;;5109615;28;20021;-67
2021/09/01 08:29:03;;;;;;;;;;;44.90;55.00;;;;;;5106742;28;20573;-68
2021/09/01 08:31:28;;;;;;;;;;;46.00;52.70;;;;;;5109852;28;20369;-65
2021/09/01 08:33:54;;;;;;;;;;;46.60;48.30;;;;;;5081991;28;19908;-67
2021/09/01 08:36:19;;;;;;;;;;;46.80;44.30;;;;;;5109512;28;19908;-68
2021/09/01 08:38:45;;;;;;;;;;;46.80;39.70;;;;;;5105930;28;19923;-66
2021/09/01 08:41:11;;;;;;;;;;;46.60;34.00;;;;;;5099374;28;19908;-66
2021/09/01 08:43:37;;;;;;;;;;;45.80;28.40;;;;;;5095501;28;19908;-67
2021/09/01 08:46:03;;;;;;;;;;;44.30;23.80;;;;;;5107512;28;20295;-67
2021/09/01 08:48:29;;;;;;;;;;;43.60;21.50;;;;;;5108992;28;20375;-66
2021/09/01 08:50:55;;;;;;;;;;;43.20;19.50;;;;;;5107133;28;20432;-67
2021/09/01 08:53:20;;;;;;;;;;;43.20;19.20;;;;;;5107754;28;19912;-67
2021/09/01 08:55:52;;;;;;;;;;;42.80;18.30;;;;;;5108844;28;20325;-66
2021/09/01 08:58:18;;;;;;;;;;;43.40;18.20;;;;;;5109568;28;19934;-66
2021/09/01 09:00:43;;;;;;;;;;;43.20;17.00;;;;;;5113585;28;19912;-65
2021/09/01 09:03:09;;;;;;;;;;;42.90;15.80;;;;;;5110239;28;19915;-65
2021/09/01 09:05:39;;;;;;;;;;;42.80;14.90;;;;;;5112767;28;19912;-65
2021/09/01 09:08:06;;;;;;;;;;;42.10;14.20;;;;;;5105339;28;19932;-65
2021/09/01 09:10:32;;;;;;;;;;;42.30;14.80;;;;;;5113032;28;19927;-66
2021/09/01 09:13:09;;;;;;;;;;;43.10;15.00;;;;;;5112651;28;19908;-66
2021/09/01 09:15:35;;;;;;;;;;;43.90;15.40;;;;;;5112959;28;19908;-65
2021/09/01 09:18:01;;;;;;;;;;;43.00;12.70;;;;;;5094181;28;20033;-66
2021/09/01 09:20:28;;;;;;;;;;;42.50;11.50;;;;;;5110458;28;19908;-67
2021/09/01 09:22:54;;;;;;;;;;;43.20;12.60;;;;;;5111604;28;19908;-66
2021/09/01 09:25:23;;;;;;;;;;;44.50;12.60;;;;;;5111895;28;20356;-67
2021/09/01 09:27:50;;;;;;;;;;;43.50;10.80;;;;;;5109240;28;19908;-67
2021/09/01 09:30:19;;;;;;;;;;;43.50;9.50;;;;;;5112267;28;19920;-67
2021/09/01 09:33:00;;;;;;;;;;;44.10;9.20;;;;;;5110187;28;19912;-67
2021/09/01 09:35:45;;;;;;;;;;;44.10;7.20;;;;;;5113013;28;19956;-68
2021/09/01 09:38:10;;;;;;;;;;;41.90;4.70;;;;;;5111644;28;19916;-69
2021/09/01 09:40:36;;;;;;;;;;;40.40;4.70;;;;;;5111983;28;19908;-67
2021/09/01 09:43:11;;;;;;;;;;;40.30;4.60;;;;;;5111606;28;19907;-68
2021/09/01 09:45:37;;;;;;;;;;;41.30;4.60;;;;;;5112569;28;20356;-67
2021/09/01 09:48:03;;;;;;;;;;;39.70;2.50;;;;;;5112085;28;19965;-66
2021/09/01 09:50:28;;;;;;;;;;;36.10;1.60;;;;;;5112013;28;19965;-66
2021/09/01 09:52:53;;;;;;;;;;;33.10;4.20;;;;;;5110659;28;19911;-67
2021/09/01 09:55:21;;;;;;;;;;;32.40;9.10;;;;;;5111856;28;20524;-66
2021/09/01 09:57:51;;;;;;;;;;;34.60;10.60;;;;;;5111976;28;19919;-67
2021/09/01 10:00:17;;;;;;;;;;;36.40;11.70;;;;;;5112051;28;19922;-65
2021/09/01 10:02:43;;;;;;;;;;;35.90;12.40;;;;;;5111367;28;20376;-65
2021/09/01 10:05:13;;;;;;;;;;;35.50;12.80;;;;;;5112924;28;20276;-68
2021/09/01 10:07:38;;;;;;;;;;;35.10;13.10;;;;;;5111332;28;19923;-68
2021/09/01 10:10:04;;;;;;;;;;;34.40;13.90;;;;;;5111126;28;20307;-67
2021/09/01 10:12:29;;;;;;;;;;;33.20;15.00;;;;;;5111217;28;20365;-66
2021/09/01 10:14:56;;;;;;;;;;;32.70;17.50;;;;;;5112194;28;20326;-67
2021/09/01 10:17:22;;;;;;;;;;;33.10;18.90;;;;;;5112397;28;19912;-67
2021/09/01 10:19:50;;;;;;;;;;;32.80;20.20;;;;;;5112343;28;19984;-66
2021/09/01 10:22:16;;;;;;;;;;;32.90;21.20;;;;;;5111067;28;19995;-67
2021/09/01 10:24:42;;;;;;;;;;;32.00;21.50;;;;;;5111415;28;20002;-66
2021/09/01 10:27:23;;;;;;;;;;;31.40;24.30;;;;;;5111970;28;19922;-67
2021/09/01 10:29:59;;;;;;;;;;;31.40;26.40;;;;;;5111313;28;20454;-67
2021/09/01 10:32:43;;;;;;;;;;;31.70;26.30;;;;;;5110560;28;19914;-67
2021/09/01 10:35:12;;;;;;;;;;;31.20;27.90;;;;;;5111429;28;20516;-67
2021/09/01 10:37:38;;;;;;;;;;;30.90;29.80;;;;;;5110534;28;19998;-67
2021/09/01 10:40:05;;;;;;;;;;;30.40;31.10;;;;;;5111339;28;19971;-67
2021/09/01 10:42:35;;;;;;;;;;;30.20;33.30;;;;;;5110681;28;19938;-67
2021/09/01 10:45:02;;;;;;;;;;;30.20;36.00;;;;;;5109680;28;20014;-67
2021/09/01 10:47:47;;;;;;;;;;;30.10;37.10;;;;;;5110670;28;19968;-68
2021/09/01 10:50:14;;;;;;;;;;;30.60;39.60;;;;;;5110891;28;20375;-67
2021/09/01 10:52:55;;;;;;;;;;;30.90;40.80;;;;;;5109351;28;19908;-67
2021/09/01 10:55:20;;;;;;;;;;;31.60;42.10;;;;;;5100562;28;19908;-67
2021/09/01 10:58:06;;;;;;;;;;;32.40;42.70;;;;;;5108211;28;20002;-67
2021/09/01 11:00:38;;;;;;;;;;;32.80;43.90;;;;;;5110702;28;20266;-67
2021/09/01 11:03:04;;;;;;;;;;;31.80;43.50;;;;;;5109692;28;19908;-67
2021/09/01 11:05:29;;;;;;;;;;;31.30;44.80;;;;;;5110748;28;20250;-67
2021/09/01 11:07:56;;;;;;;;;;;31.30;46.00;;;;;;5110231;28;19912;-68
2021/09/01 11:10:21;;;;;;;;;;;31.10;47.40;;;;;;5110321;28;20348;-68
2021/09/01 11:12:55;;;;;;;;;;;31.60;48.70;;;;;;5109723;28;19967;-68
2021/09/01 11:15:20;;;;;;;;;;;32.20;48.90;;;;;;5110469;28;19919;-68
2021/09/01 11:17:46;;;;;;;;;;;32.10;48.60;;;;;;5110144;28;20300;-68
2021/09/01 11:20:11;;;;;;;;;;;32.00;48.50;;;;;;5110691;28;19961;-68
2021/09/01 11:22:37;;;;;;;;;;;31.50;48.60;;;;;;5105887;28;19908;-68
2021/09/01 11:25:05;;;;;;;;;;;30.70;46.10;;;;;;5109644;28;19939;-67
2021/09/01 11:27:32;;;;;;;;;;;29.70;46.80;;;;;;5110135;28;20345;-68
2021/09/01 11:30:02;;;;;;;;;;;29.50;48.80;;;;;;5110197;28;19939;-65
2021/09/01 11:32:28;;;;;;;;;;;29.10;49.40;;;;;;5109429;28;20257;-67
2021/09/01 11:34:54;;;;;;;;;;;29.00;52.50;;;;;;5110365;28;19908;-67
2021/09/01 11:37:22;;;;;;;;;;;28.30;52.00;;;;;;5109352;28;19998;-67
2021/09/01 11:39:49;;;;;;;;;;;27.80;54.00;;;;;;5085345;28;19919;-67
2021/09/01 11:42:15;;;;;;;;;;;27.80;55.70;;;;;;5097861;28;20054;-67
2021/09/01 11:44:41;;;;;;;;;;;28.00;57.40;;;;;;5099353;28;19998;-67
2021/09/01 11:47:14;;;;;;;;;;;27.50;57.60;;;;;;5099764;28;20773;-67
2021/09/01 11:49:39;;;;;;;;;;;26.70;58.40;;;;;;5097359;28;19931;-66
2021/09/01 11:52:05;;;;;;;;;;;26.20;61.50;;;;;;5096612;28;19915;-68
2021/09/01 11:54:30;;;;;;;;;;;25.60;64.10;;;;;;5102529;28;19911;-68
2021/09/01 11:56:56;;;;;;;;;;;25.30;66.70;;;;;;5081324;28;19919;-68
2021/09/01 11:59:25;;;;;;;;;;;25.30;70.30;;;;;;5099003;28;19908;-66
2021/09/01 12:01:58;;;;;;;;;;;25.40;75.20;;;;;;5097172;28;19912;-69
2021/09/01 12:04:24;;;;;;;;;;;25.70;76.80;;;;;;5098853;28;19912;-68
2021/09/01 12:06:54;;;;;;;;;;;25.50;77.00;;;;;;5099985;28;19912;-67
2021/09/01 12:09:20;;;;;;;;;;;25.80;82.30;;;;;;5099475;28;19919;-68
2021/09/01 12:11:48;;;;;;;;;;;26.20;83.70;;;;;;5098513;28;20644;-69
2021/09/01 12:14:14;;;;;;;;;;;25.90;83.50;;;;;;5100380;28;19965;-67
2021/09/01 12:16:39;;;;;;;;;;;26.20;85.40;;;;;;5098714;28;19912;-67
2021/09/01 12:19:11;;;;;;;;;;;26.10;84.20;;;;;;5104016;28;19951;-66
2021/09/01 12:21:46;;;;;;;;;;;25.30;84.40;;;;;;5098675;28;19912;-67
2021/09/01 12:24:23;;;;;;;;;;;25.10;87.00;;;;;;5097505;28;19923;-66
2021/09/01 12:26:57;;;;;;;;;;;24.50;87.20;;;;;;5097531;28;19959;-68
2021/09/01 12:29:28;;;;;;;;;;;24.50;90.80;;;;;;5102920;28;20252;-67
2021/09/01 12:31:54;;;;;;;;;;;25.00;92.30;;;;;;5096914;28;19949;-67
2021/09/01 12:34:29;;;;;;;;;;;24.80;96.10;;;;;;5105817;28;20319;-66
2021/09/01 12:37:02;;;;;;;;;;;25.10;94.00;;;;;;5106779;28;19907;-67
2021/09/01 12:39:38;;;;;;;;;;;25.30;94.30;;;;;;5103554;28;19993;-65
2021/09/01 12:42:03;;;;;;;;;;;25.10;94.30;;;;;;5103628;28;19912;-67
2021/09/01 12:44:44;;;;;;;;;;;24.60;93.50;;;;;;5101329;28;19968;-68
2021/09/01 12:47:09;;;;;;;;;;;24.10;93.20;;;;;;5102032;28;20376;-67
2021/09/01 12:49:42;;;;;;;;;;;23.80;93.40;;;;;;5099505;28;19908;-67
2021/09/01 12:52:07;;;;;;;;;;;23.70;94.60;;;;;;5101977;28;20003;-66
2021/09/01 12:54:33;;;;;;;;;;;23.50;96.10;;;;;;5105405;28;20014;-68
2021/09/01 12:56:58;;;;;;;;;;;23.50;96.90;;;;;;5102958;28;19912;-69
2021/09/01 12:59:24;;;;;;;;;;;23.80;99.10;;;;;;5101406;28;19908;-67
2021/09/01 13:01:49;;;;;;;;;;;24.20;99.90;;;;;;5101981;28;20356;-66
2021/09/01 13:04:15;;;;;;;;;;;24.50;99.90;;;;;;5101449;28;20002;-65
2021/09/01 13:06:40;;;;;;;;;;;24.20;99.90;;;;;;5085825;28;20433;-66
2021/09/01 13:09:06;;;;;;;;;;;23.70;99.50;;;;;;5099652;28;19923;-66
2021/09/01 13:11:32;;;;;;;;;;;23.10;98.30;;;;;;5102065;28;19926;-66
2021/09/01 13:13:57;;;;;;;;;;;22.60;99.50;;;;;;5101525;28;19908;-67
2021/09/01 13:16:23;;;;;;;;;;;22.50;99.90;;;;;;5109210;28;19912;-66
2021/09/01 13:18:48;;;;;;;;;;;22.20;99.90;;;;;;5116393;28;19938;-67
2021/09/01 13:21:14;;;;;;;;;;;22.10;99.90;;;;;;5091186;28;20002;-62
2021/09/01 13:23:39;;;;;;;;;;;22.30;99.90;;;;;;5099705;28;20322;-65
2021/09/01 13:26:05;;;;;;;;;;;22.80;99.90;;;;;;5109557;28;19915;-67
2021/09/01 13:28:30;;;;;;;;;;;23.20;99.90;;;;;;5112065;28;19912;-66
2021/09/01 13:30:56;;;;;;;;;;;23.40;99.90;;;;;;5113189;28;19958;-66
2021/09/01 13:33:23;;;;;;;;;;;23.70;99.90;;;;;;5108818;28;19908;-66
2021/09/01 13:35:48;;;;;;;;;;;23.60;99.90;;;;;;5109537;28;19987;-67
2021/09/01 13:38:14;;;;;;;;;;;23.20;99.90;;;;;;5117103;28;19923;-66
2021/09/01 13:40:39;;;;;;;;;;;22.90;99.90;;;;;;5113296;28;19919;-65
2021/09/01 13:43:05;;;;;;;;;;;22.60;99.90;;;;;;5113175;28;19907;-66
2021/09/01 13:45:30;;;;;;;;;;;22.30;99.90;;;;;;5112426;28;19912;-67
2021/09/01 13:47:56;;;;;;;;;;;22.10;99.90;;;;;;5107936;28;19907;-66
2021/09/01 13:50:21;;;;;;;;;;;22.10;99.90;;;;;;5102780;28;20433;-66
2021/09/01 13:52:47;;;;;;;;;;;22.30;99.90;;;;;;5104777;28;20037;-68
2021/09/01 13:55:12;;;;;;;;;;;22.40;99.90;;;;;;5099458;28;19916;-66
2021/09/01 13:57:39;;;;;;;;;;;22.30;99.90;;;;;;5102055;28;19931;-66
2021/09/01 14:00:07;;;;;;;;;;;22.00;99.90;;;;;;5101446;28;20277;-66
2021/09/01 14:02:33;;;;;;;;;;;21.80;99.90;;;;;;5098577;28;19919;-66
2021/09/01 14:04:58;;;;;;;;;;;21.70;99.90;;;;;;5101936;28;19912;-66
2021/09/01 14:07:24;;;;;;;;;;;21.60;99.90;;;;;;5100585;28;20073;-66
2021/09/01 14:09:49;;;;;;;;;;;21.50;99.90;;;;;;5099401;28;19920;-66
2021/09/01 14:12:15;;;;;;;;;;;21.50;99.90;;;;;;5100545;28;19938;-65
2021/09/01 14:14:40;;;;;;;;;;;21.60;99.90;;;;;;5100518;28;20602;-65
2021/09/01 14:17:06;;;;;;;;;;;21.60;99.90;;;;;;5099678;28;20035;-66
2021/09/01 14:19:31;;;;;;;;;;;21.60;99.90;;;;;;5102834;27;19998;-66